»·PEaware :: N4217L KSNA-KSMO

N4217L :: KSNA-KSMO

FLIGHT INFORMATION

Flight Status: Arrived
Operator: Privately registered:
United States
More flights under this callsign
Pilot: James F. (31917)
Aircraft: PIPER PA-44 SEMINOLE
(PA44)
More flights by this aircraft type
Origin: KSNA John Wayne-Orange Co
United States
Destination: KSMO Santa Monica Mun
United States
More flights between these airports :: More routes between these airports
Route: SLI V8 POXKU V363 BAYJY V186 DARTS
File this flight plan on PilotEdge
Remarks: TEC route CSTP9
Altitude:
(Current/Filed)
6,000ft
Speed:
(Current/Filed)
130kts
Departed: 30-Nov-20 09:16 PM
Arrived: 30-Nov-20 09:50 PM
Distance/Time
Traveled:
35nm/0:34
Distance/Time
To Go:
Arrived

Flight Plot

Page will automatically refresh every two minutes.


Map Options




Map Legend


Flown Route
Filed Route
Departure Airport
Arrival Airport
Navaid (VOR, NDB)
Fix

Horizontal Profiles

Position Reports

Time Latitude Longitude Heading Altitude Ground
Speed
30-Nov-20 20:58 33.675789 -117.870928 359 53ft 0kts
30-Nov-20 20:59 33.675789 -117.870928 359 53ft 0kts
30-Nov-20 21:00 33.675788 -117.870928 359 53ft 0kts
30-Nov-20 21:01 33.675788 -117.870928 359 53ft 0kts
30-Nov-20 21:02 33.675788 -117.870928 359 53ft 0kts
30-Nov-20 21:03 33.675788 -117.870928 359 53ft 0kts
30-Nov-20 21:04 33.675788 -117.870928 359 53ft 0kts
30-Nov-20 21:05 33.675788 -117.870928 359 53ft 0kts
30-Nov-20 21:06 33.675788 -117.870928 359 53ft 0kts
30-Nov-20 21:07 33.675788 -117.870928 359 53ft 0kts
30-Nov-20 21:08 33.675788 -117.870928 359 53ft 0kts
30-Nov-20 21:09 33.675788 -117.870928 359 53ft 0kts
30-Nov-20 21:10 33.675788 -117.870928 359 53ft 0kts
30-Nov-20 21:11 33.675788 -117.870928 359 53ft 0kts
30-Nov-20 21:12 33.676543 -117.869795 28 54ft 18kts
30-Nov-20 21:13 33.681197 -117.866964 54 43ft 3kts
30-Nov-20 21:14 33.681202 -117.866401 113 43ft 3kts
30-Nov-20 21:15 33.668035 -117.873935 213 336ft 115kts
30-Nov-20 21:16 33.644205 -117.906167 232 1346ft 134kts
30-Nov-20 21:17 33.621472 -117.942537 233 1872ft 137kts
30-Nov-20 21:18 33.610541 -117.978651 328 2590ft 119kts
30-Nov-20 21:19 33.642327 -117.978948 11 3497ft 115kts
30-Nov-20 21:20 33.673193 -117.971130 13 4432ft 109kts
30-Nov-20 21:21 33.701842 -117.963284 13 5431ft 102kts
30-Nov-20 21:22 33.731080 -117.954984 13 6002ft 127kts
30-Nov-20 21:23 33.747770 -117.920105 89 6007ft 141kts
30-Nov-20 21:24 33.748314 -117.872896 84 6003ft 141kts
30-Nov-20 21:25 33.771603 -117.840038 20 5997ft 140kts
30-Nov-20 21:26 33.807003 -117.820555 32 5995ft 141kts
30-Nov-20 21:27 33.839277 -117.793344 32 5994ft 141kts
30-Nov-20 21:28 33.876234 -117.780548 358 5993ft 141kts
30-Nov-20 21:29 33.915584 -117.784279 358 5994ft 141kts
30-Nov-20 21:30 33.953974 -117.784086 0 5993ft 141kts
30-Nov-20 21:31 33.991167 -117.785424 359 5994ft 141kts
30-Nov-20 21:32 34.020020 -117.810406 288 5985ft 143kts
30-Nov-20 21:33 34.029869 -117.856877 285 5989ft 143kts
30-Nov-20 21:34 34.043339 -117.901967 293 5989ft 143kts
30-Nov-20 21:35 34.056614 -117.945024 289 5990ft 142kts
30-Nov-20 21:36 34.068018 -117.982300 291 5991ft 135kts
30-Nov-20 21:37 34.078813 -118.016919 290 5992ft 134kts
30-Nov-20 21:38 34.088189 -118.047984 290 5991ft 138kts
30-Nov-20 21:39 34.098605 -118.081529 290 5738ft 146kts
30-Nov-20 21:40 34.112479 -118.126977 291 4934ft 143kts
30-Nov-20 21:41 34.124484 -118.170598 276 4195ft 142kts
30-Nov-20 21:42 34.121884 -118.215860 263 3998ft 131kts
30-Nov-20 21:43 34.116990 -118.259095 262 3959ft 133kts
30-Nov-20 21:44 34.111991 -118.302964 262 3430ft 144kts
30-Nov-20 21:45 34.089453 -118.340854 220 2908ft 138kts
30-Nov-20 21:46 34.064732 -118.374212 241 2424ft 131kts
30-Nov-20 21:47 34.047823 -118.409883 232 1261ft 110kts
30-Nov-20 21:48 34.027803 -118.437240 221 453ft 105kts
30-Nov-20 21:49 34.013667 -118.453902 223 148ft 27kts
30-Nov-20 21:50 34.012856 -118.453935 139 145ft 0kts
30-Nov-20 21:51 34.013569 -118.451725 146 143ft 12kts
30-Nov-20 21:52 34.013307 -118.451553 163 141ft 0kts

Navigation Log

Ident Type
Flight plan parsing failed, navigation log unavailable